»·PEaware :: AWI6973 KRDD-KSFO

AWI6973 :: KRDD-KSFO

FLIGHT INFORMATION

Flight Status: Arrived
Operator:
Air Wisconsin
More flights by this operator :: More flights under this callsign
Pilot: Anonymous 10623 (10623)
Aircraft: BRITISH AERO BAe-146-300
(B463)
More flights by this aircraft type
Origin: KRDD Redding Mun
United States
Destination: KSFO San Francisco Intl
United States
More flights between these airports :: More routes between these airports
Route: +KENDL4 RBL MRRLO BDEGA3
File this flight plan on PilotEdge
Remarks:
Altitude:
(Current/Filed)
21,000ft
Speed:
(Current/Filed)
399kts
Departed: 05-Oct-20 12:52 PM
Arrived: 05-Oct-20 01:35 PM
Distance/Time
Traveled:
173nm/0:43
Distance/Time
To Go:
Arrived

Flight Plot

Page will automatically refresh every two minutes.

Flight plan parsing failed; only flown route is shown


Map Options




Map Legend


Flown Route
Filed Route
Departure Airport
Arrival Airport
Navaid (VOR, NDB)
Fix

Horizontal Profiles

Position Reports

Time Latitude Longitude Heading Altitude Ground
Speed
05-Oct-20 12:17 40.505097 -122.299163 316 510ft 0kts
05-Oct-20 12:18 40.505097 -122.299163 316 510ft 0kts
05-Oct-20 12:19 40.505097 -122.299163 316 510ft 0kts
05-Oct-20 12:20 40.505097 -122.299163 316 510ft 0kts
05-Oct-20 12:21 40.505097 -122.299163 316 510ft 0kts
05-Oct-20 12:22 40.505097 -122.299163 316 510ft 0kts
05-Oct-20 12:23 40.505097 -122.299163 316 510ft 0kts
05-Oct-20 12:24 40.505097 -122.299163 316 510ft 0kts
05-Oct-20 12:25 40.505097 -122.299163 316 510ft 0kts
05-Oct-20 12:26 40.505097 -122.299163 316 510ft 0kts
05-Oct-20 12:28 40.505097 -122.299163 316 510ft 0kts
05-Oct-20 12:29 40.505097 -122.299163 316 510ft 0kts
05-Oct-20 12:30 40.505097 -122.299163 316 510ft 0kts
05-Oct-20 12:31 40.505097 -122.299163 316 510ft 0kts
05-Oct-20 12:32 40.505097 -122.299163 316 510ft 0kts
05-Oct-20 12:33 40.505097 -122.299163 316 510ft 0kts
05-Oct-20 12:34 40.505097 -122.299163 316 510ft 0kts
05-Oct-20 12:35 40.505097 -122.299163 316 510ft 0kts
05-Oct-20 12:36 40.505097 -122.299163 316 510ft 0kts
05-Oct-20 12:37 40.505097 -122.299163 316 510ft 0kts
05-Oct-20 12:38 40.505073 -122.299134 315 510ft 1kts
05-Oct-20 12:39 40.504517 -122.298404 323 510ft 2kts
05-Oct-20 12:40 40.504077 -122.298212 354 510ft 0kts
05-Oct-20 12:41 40.504077 -122.298212 354 510ft 0kts
05-Oct-20 12:42 40.504078 -122.298212 354 510ft 0kts
05-Oct-20 12:43 40.504081 -122.298213 354 510ft 0kts
05-Oct-20 12:43 40.504088 -122.298214 354 510ft 0kts
05-Oct-20 12:45 40.507867 -122.297884 43 510ft 14kts
05-Oct-20 12:46 40.511262 -122.296315 359 510ft 19kts
05-Oct-20 12:46 40.516714 -122.296307 1 510ft 21kts
05-Oct-20 12:47 40.520158 -122.296126 51 510ft 4kts
05-Oct-20 12:49 40.520224 -122.295964 72 510ft 0kts
05-Oct-20 12:49 40.520246 -122.295414 92 510ft 6kts
05-Oct-20 12:50 40.518848 -122.294865 179 510ft 30kts
05-Oct-20 12:51 40.488391 -122.295864 196 759ft 149kts
05-Oct-20 12:52 40.468087 -122.341948 220 1874ft 167kts
05-Oct-20 12:53 40.420848 -122.345337 175 3737ft 188kts
05-Oct-20 12:54 40.363523 -122.331003 163 5837ft 234kts
05-Oct-20 12:55 40.296951 -122.307047 163 8251ft 255kts
05-Oct-20 12:56 40.226642 -122.281898 164 9882ft 268kts
05-Oct-20 12:57 40.153195 -122.254634 165 12091ft 279kts
05-Oct-20 12:58 40.074374 -122.244103 188 14144ft 293kts
05-Oct-20 12:59 39.993184 -122.263727 193 16232ft 302kts
05-Oct-20 13:00 39.909833 -122.288430 193 18201ft 311kts
05-Oct-20 13:01 39.824225 -122.313004 192 20040ft 319kts
05-Oct-20 13:02 39.734597 -122.338855 192 21089ft 351kts
05-Oct-20 13:03 39.633598 -122.368232 192 21107ft 377kts
05-Oct-20 13:04 39.530756 -122.398378 192 21107ft 381kts
05-Oct-20 13:05 39.426311 -122.428504 191 21104ft 385kts
05-Oct-20 13:06 39.321106 -122.458307 191 21102ft 387kts
05-Oct-20 13:07 39.216049 -122.488176 191 21102ft 388kts
05-Oct-20 13:08 39.110445 -122.518114 191 21102ft 389kts
05-Oct-20 13:09 39.004601 -122.548454 191 21098ft 389kts
05-Oct-20 13:10 38.898902 -122.579092 191 21096ft 390kts
05-Oct-20 13:11 38.793021 -122.609317 191 21097ft 391kts
05-Oct-20 13:12 38.686404 -122.639544 190 21095ft 394kts
05-Oct-20 13:13 38.579628 -122.669595 190 21098ft 397kts
05-Oct-20 13:14 38.471331 -122.700019 190 21088ft 398kts
05-Oct-20 13:15 38.363575 -122.730269 190 20218ft 394kts
05-Oct-20 13:16 38.257577 -122.759554 187 19258ft 385kts
05-Oct-20 13:17 38.152254 -122.751787 166 18411ft 377kts
05-Oct-20 13:18 38.051030 -122.720924 164 17543ft 371kts
05-Oct-20 13:19 37.950981 -122.690479 165 16732ft 365kts
05-Oct-20 13:20 37.861458 -122.636219 142 16093ft 348kts
05-Oct-20 13:21 37.788770 -122.558890 138 14342ft 339kts
05-Oct-20 13:22 37.718537 -122.481777 139 12288ft 330kts
05-Oct-20 13:23 37.651511 -122.408495 140 11064ft 298kts
05-Oct-20 13:24 37.588216 -122.352385 152 10998ft 266kts
05-Oct-20 13:25 37.523477 -122.309467 153 10475ft 257kts
05-Oct-20 13:26 37.467555 -122.255425 119 8953ft 266kts
05-Oct-20 13:27 37.439455 -122.170667 113 6565ft 255kts
05-Oct-20 13:28 37.456404 -122.101294 12 5023ft 232kts
05-Oct-20 13:29 37.511141 -122.132437 317 3924ft 195kts
05-Oct-20 13:30 37.541318 -122.190458 297 3069ft 202kts
05-Oct-20 13:31 37.568008 -122.254753 299 1855ft 199kts
05-Oct-20 13:32 37.588879 -122.304247 300 1037ft 137kts
05-Oct-20 13:33 37.606097 -122.344975 300 317ft 124kts
05-Oct-20 13:34 37.618244 -122.373793 295 21ft 32kts
05-Oct-20 13:35 37.619037 -122.380325 266 21ft 9kts
05-Oct-20 13:36 37.620564 -122.384175 298 21ft 19kts
05-Oct-20 13:37 37.622621 -122.389624 251 21ft 9kts
05-Oct-20 13:38 37.620432 -122.392079 151 21ft 6kts
05-Oct-20 13:39 37.619684 -122.389682 23 21ft 5kts
05-Oct-20 13:40 37.620196 -122.389402 26 21ft 0kts
05-Oct-20 13:41 37.620196 -122.389402 26 21ft 0kts
05-Oct-20 13:42 37.620196 -122.389402 26 21ft 0kts
05-Oct-20 13:43 37.620196 -122.389402 26 21ft 0kts

Navigation Log

Ident Type
Flight plan parsing failed, navigation log unavailable